createdAt,value
2018-07-28T00:01:34.808Z,87.29
2018-07-28T00:04:03.654Z,87.71
2018-07-28T00:06:32.485Z,87.37
2018-07-28T00:09:01.353Z,87.83
2018-07-28T00:11:30.207Z,87.78
2018-07-28T00:13:59.078Z,87.76
2018-07-28T00:16:27.887Z,88.06
2018-07-28T00:18:56.745Z,87.83
2018-07-28T00:21:25.557Z,88.30
2018-07-28T00:23:54.379Z,88.32
2018-07-28T00:26:23.233Z,89.11
2018-07-28T00:28:52.352Z,89.59
2018-07-28T00:31:21.183Z,89.36
2018-07-28T00:33:50.002Z,89.72
2018-07-28T00:36:18.789Z,90.26
2018-07-28T00:38:47.711Z,91.09
2018-07-28T00:41:16.596Z,91.92
2018-07-28T00:43:45.411Z,92.25
2018-07-28T00:46:14.228Z,92.84
2018-07-28T00:48:43.046Z,93.11
2018-07-28T00:51:11.859Z,93.27
2018-07-28T00:53:40.645Z,93.39
2018-07-28T00:56:09.500Z,93.19
2018-07-28T00:58:38.335Z,93.39
2018-07-28T01:01:07.279Z,93.67
2018-07-28T01:03:36.124Z,93.68
2018-07-28T01:06:05.152Z,93.95
2018-07-28T01:08:33.958Z,93.68
2018-07-28T01:11:02.797Z,93.80
2018-07-28T01:13:31.664Z,93.74
2018-07-28T01:16:00.465Z,93.98
2018-07-28T01:18:29.266Z,93.14
2018-07-28T01:20:58.125Z,93.65
2018-07-28T01:23:26.974Z,93.67
2018-07-28T01:25:55.813Z,93.42
2018-07-28T01:28:24.670Z,93.46
2018-07-28T01:30:53.533Z,93.45
2018-07-28T01:33:22.330Z,93.53
2018-07-28T01:35:51.214Z,93.52
2018-07-28T01:38:20.026Z,93.33
2018-07-28T01:40:48.827Z,93.09
2018-07-28T01:43:17.691Z,92.44
2018-07-28T01:45:46.512Z,92.54
2018-07-28T01:48:15.354Z,92.08
2018-07-28T01:50:44.201Z,92.91
2018-07-28T01:53:12.997Z,92.44
2018-07-28T01:55:41.835Z,92.55
2018-07-28T01:58:10.629Z,92.07
2018-07-28T02:00:39.460Z,92.12
2018-07-28T02:03:08.299Z,92.15
2018-07-28T02:05:37.109Z,92.23
2018-07-28T02:08:06.217Z,92.43
2018-07-28T02:10:35.032Z,92.50
2018-07-28T02:13:03.800Z,91.80
2018-07-28T02:15:32.613Z,92.31
2018-07-28T02:18:01.441Z,92.43
2018-07-28T02:20:30.334Z,92.81
2018-07-28T02:22:59.146Z,92.49
2018-07-28T02:25:33.054Z,92.05
2018-07-28T02:28:01.869Z,92.10
2018-07-28T02:30:30.738Z,91.93
2018-07-28T02:32:59.530Z,91.81
2018-07-28T02:35:28.365Z,91.71
2018-07-28T02:37:57.222Z,91.85
2018-07-28T02:40:26.106Z,91.96
2018-07-28T02:42:54.989Z,91.87
2018-07-28T02:45:23.893Z,91.87
2018-07-28T02:47:52.765Z,92.15
2018-07-28T02:50:21.589Z,92.53
2018-07-28T02:52:50.399Z,92.35
2018-07-28T02:55:19.236Z,92.83
2018-07-28T02:57:48.055Z,92.54
2018-07-28T03:00:17.355Z,92.48
2018-07-28T03:02:46.273Z,92.54
2018-07-28T03:05:15.085Z,93.42
2018-07-28T03:07:43.869Z,93.98
2018-07-28T03:10:12.692Z,94.06
2018-07-28T03:12:41.549Z,94.23
2018-07-28T03:15:30.123Z,94.21
2018-07-28T03:18:00.088Z,93.94
2018-07-28T03:20:29.132Z,94.40
2018-07-28T03:22:58.037Z,94.34
2018-07-28T03:25:26.981Z,94.45
2018-07-28T03:27:56.036Z,95.14
2018-07-28T03:30:25.004Z,94.61
2018-07-28T03:32:54.317Z,94.68
2018-07-28T03:35:23.189Z,95.24
2018-07-28T03:37:52.222Z,94.90
2018-07-28T03:40:21.018Z,95.15
2018-07-28T03:42:49.804Z,94.85
2018-07-28T03:45:18.732Z,94.97
2018-07-28T03:47:47.644Z,94.72
2018-07-28T03:50:16.425Z,94.53
2018-07-28T03:52:45.293Z,94.00
2018-07-28T03:55:14.173Z,94.21
2018-07-28T03:57:43.041Z,93.55
2018-07-28T04:00:13.081Z,93.56
2018-07-28T04:02:41.933Z,92.56
2018-07-28T04:05:13.163Z,92.02
2018-07-28T04:07:41.961Z,92.41
2018-07-28T04:10:11.097Z,92.42
2018-07-28T04:12:41.580Z,92.97
2018-07-28T04:15:13.133Z,92.85
2018-07-28T04:17:47.812Z,93.16
2018-07-28T04:20:16.653Z,92.35
2018-07-28T04:22:45.436Z,91.95
2018-07-28T04:25:14.437Z,90.73
2018-07-28T04:27:43.232Z,91.40
2018-07-28T04:30:12.068Z,90.90
2018-07-28T04:32:40.976Z,91.13
2018-07-28T04:35:09.812Z,90.13
2018-07-28T04:37:39.472Z,89.54
2018-07-28T04:40:09.616Z,89.08
2018-07-28T04:42:38.450Z,88.58
2018-07-28T04:45:07.769Z,87.83
2018-07-28T04:47:36.740Z,88.74
2018-07-28T04:50:05.913Z,87.53
2018-07-28T04:52:34.866Z,87.67
2018-07-28T04:55:03.855Z,88.02
2018-07-28T04:57:32.692Z,86.80
2018-07-28T05:00:01.524Z,86.59
2018-07-28T05:02:30.369Z,88.20
2018-07-28T05:04:59.328Z,89.85
2018-07-28T05:07:28.183Z,89.04
2018-07-28T05:09:56.951Z,88.93
2018-07-28T05:12:26.110Z,90.16
2018-07-28T05:14:54.878Z,91.40
2018-07-28T05:17:23.740Z,88.90
2018-07-28T05:19:53.883Z,87.34
2018-07-28T05:22:22.875Z,86.65
2018-07-28T05:24:51.687Z,88.76
2018-07-28T05:27:20.556Z,86.60
2018-07-28T05:29:49.321Z,87.04
2018-07-28T05:32:18.104Z,85.92
2018-07-28T05:34:46.944Z,86.11
2018-07-28T05:37:16.013Z,86.20
2018-07-28T05:39:44.796Z,85.96
2018-07-28T05:42:13.781Z,83.68
2018-07-28T05:44:43.832Z,82.99
2018-07-28T05:47:12.596Z,87.21
2018-07-28T05:49:41.377Z,85.52
2018-07-28T05:52:10.299Z,84.79
2018-07-28T05:54:39.090Z,84.67
2018-07-28T05:57:07.882Z,83.14
2018-07-28T05:59:36.716Z,82.99
2018-07-28T06:02:05.623Z,81.50
2018-07-28T06:04:34.491Z,80.94
2018-07-28T06:07:03.329Z,81.61
2018-07-28T06:09:32.152Z,82.50
2018-07-28T06:12:01.048Z,82.50
2018-07-28T06:14:31.088Z,82.22
2018-07-28T06:17:00.197Z,82.38
2018-07-28T06:19:28.978Z,81.53
2018-07-28T06:21:59.127Z,81.14
2018-07-28T06:24:27.945Z,82.11
2018-07-28T06:26:56.761Z,82.52
2018-07-28T06:29:25.593Z,81.54
2018-07-28T06:31:54.535Z,81.34
2018-07-28T06:34:23.292Z,79.89
2018-07-28T06:36:52.093Z,80.28
2018-07-28T06:39:20.982Z,81.77
2018-07-28T06:41:49.779Z,81.48
2018-07-28T06:44:18.608Z,79.36
2018-07-28T06:46:47.408Z,80.34
2018-07-28T06:49:16.365Z,78.42
2018-07-28T06:51:45.196Z,79.13
2018-07-28T06:54:14.469Z,78.95
2018-07-28T06:56:43.480Z,78.01
2018-07-28T06:59:12.426Z,77.16
2018-07-28T07:01:41.211Z,76.69
2018-07-28T07:04:09.997Z,76.64
2018-07-28T07:06:40.169Z,76.30
2018-07-28T07:09:10.624Z,76.70
2018-07-28T07:11:39.462Z,74.88
2018-07-28T07:14:08.605Z,75.46
2018-07-28T07:16:37.464Z,75.26
2018-07-28T07:19:06.545Z,74.58
2018-07-28T07:21:35.908Z,76.06
2018-07-28T07:24:04.780Z,71.65
2018-07-28T07:26:33.612Z,71.17
2018-07-28T07:29:03.208Z,72.44
2018-07-28T07:31:32.105Z,71.42
2018-07-28T07:34:01.054Z,71.01
2018-07-28T07:36:31.099Z,71.49
2018-07-28T07:38:59.871Z,70.10
2018-07-28T07:41:28.700Z,69.20
2018-07-28T07:43:57.862Z,68.59
2018-07-28T07:46:26.638Z,69.62
2018-07-28T07:48:55.664Z,68.21
2018-07-28T07:51:25.019Z,66.80
2018-07-28T07:53:53.943Z,65.70
2018-07-28T07:56:22.741Z,66.20
2018-07-28T07:58:51.569Z,64.99
2018-07-28T08:01:20.341Z,65.40
2018-07-28T08:03:49.103Z,64.77
2018-07-28T08:06:17.959Z,64.24
2018-07-28T08:08:46.783Z,64.48
2018-07-28T08:11:15.613Z,65.23
2018-07-28T08:13:44.503Z,62.35
2018-07-28T08:16:13.511Z,61.65
2018-07-28T08:21:17.591Z,61.40
2018-07-28T08:23:46.364Z,60.10
2018-07-28T08:26:15.207Z,60.37
2018-07-28T08:28:44.016Z,59.71
2018-07-28T08:31:12.820Z,60.83
2018-07-28T08:33:41.655Z,57.96
2018-07-28T08:36:10.479Z,57.26
2018-07-28T08:38:39.305Z,56.49
2018-07-28T08:41:08.132Z,57.26
2018-07-28T08:43:36.905Z,55.85
2018-07-28T08:46:07.553Z,56.46
2018-07-28T08:48:36.324Z,55.80
2018-07-28T08:51:05.157Z,55.49
2018-07-28T08:53:33.997Z,55.79
2018-07-28T08:56:02.817Z,56.04
2018-07-28T08:58:31.798Z,55.45
2018-07-28T09:01:00.764Z,54.38
2018-07-28T09:03:29.563Z,53.55
2018-07-28T09:05:58.419Z,53.38
2018-07-28T09:08:27.227Z,53.61
2018-07-28T09:10:56.099Z,54.15
2018-07-28T09:13:24.930Z,52.40
2018-07-28T09:15:53.866Z,52.97
2018-07-28T09:18:24.001Z,52.10
2018-07-28T09:20:52.797Z,50.84
2018-07-28T09:23:21.638Z,53.38
2018-07-28T09:25:50.543Z,53.83
2018-07-28T09:28:19.365Z,55.03
2018-07-28T09:30:48.153Z,55.09
2018-07-28T09:33:17.038Z,56.15
2018-07-28T09:35:45.892Z,54.96
2018-07-28T09:38:14.779Z,52.97
2018-07-28T09:40:43.669Z,52.68
2018-07-28T09:43:12.531Z,53.82
2018-07-28T09:45:41.313Z,52.33
2018-07-28T09:48:10.179Z,53.94
2018-07-28T09:50:38.974Z,53.35
2018-07-28T09:53:07.757Z,54.61
2018-07-28T09:55:36.600Z,54.59
2018-07-28T09:58:05.436Z,52.85
2018-07-28T10:00:39.326Z,52.79
2018-07-28T10:03:08.318Z,49.57
2018-07-28T10:05:37.144Z,48.66
2018-07-28T10:08:06.009Z,47.85
2018-07-28T10:10:34.907Z,46.25
2018-07-28T10:13:03.784Z,45.28
2018-07-28T10:15:32.618Z,45.55
2018-07-28T10:18:01.576Z,45.31
2018-07-28T10:20:30.470Z,43.81
2018-07-28T10:22:59.573Z,44.94
2018-07-28T10:25:28.331Z,44.44
2018-07-28T10:27:57.225Z,48.05
2018-07-28T10:30:26.188Z,48.57
2018-07-28T10:32:55.133Z,48.74
2018-07-28T10:35:23.934Z,48.69
2018-07-28T10:37:52.760Z,49.58
2018-07-28T10:40:21.668Z,53.99
2018-07-28T10:42:50.701Z,54.85
2018-07-28T10:45:19.527Z,55.44
2018-07-28T10:47:48.314Z,51.77
2018-07-28T10:50:17.145Z,50.76
2018-07-28T10:52:46.014Z,51.74
2018-07-28T10:55:14.817Z,49.65
2018-07-28T10:57:43.596Z,47.72
2018-07-28T11:00:12.597Z,48.03
2018-07-28T11:02:41.389Z,50.75
2018-07-28T11:05:10.275Z,51.94
2018-07-28T11:07:39.172Z,51.30
2018-07-28T11:10:08.741Z,51.33
2018-07-28T11:12:37.561Z,50.63
2018-07-28T11:15:08.144Z,50.10
2018-07-28T11:17:36.971Z,49.20
2018-07-28T11:20:07.733Z,50.51
2018-07-28T11:22:36.838Z,51.08
2018-07-28T11:25:06.852Z,50.96
2018-07-28T11:27:36.184Z,50.39
2018-07-28T11:30:06.692Z,50.57
2018-07-28T11:32:47.069Z,51.17
2018-07-28T11:35:26.942Z,51.97
2018-07-28T11:38:34.643Z,52.73
2018-07-28T11:41:15.882Z,51.15
2018-07-28T11:43:55.690Z,51.06
2018-07-28T11:46:24.537Z,48.99
2018-07-28T11:48:53.364Z,50.93
2018-07-28T11:51:23.459Z,50.83
2018-07-28T11:53:52.279Z,48.26
2018-07-28T11:56:21.079Z,48.03
2018-07-28T11:58:49.930Z,46.41
2018-07-28T12:01:18.744Z,48.38
2018-07-28T12:03:47.544Z,46.07
2018-07-28T12:06:16.376Z,45.17
2018-07-28T12:08:46.568Z,49.18
2018-07-28T12:11:15.450Z,51.06
2018-07-28T12:13:44.295Z,50.57
2018-07-28T12:16:13.124Z,50.76
2018-07-28T12:18:41.941Z,50.78
2018-07-28T12:21:10.911Z,49.29
2018-07-28T12:23:39.896Z,48.23
2018-07-28T12:26:08.731Z,45.80
2018-07-28T12:28:37.517Z,42.47
2018-07-28T12:31:07.682Z,39.10
2018-07-28T12:33:36.514Z,37.61
2018-07-28T12:36:06.047Z,36.37
2018-07-28T12:38:36.142Z,33.56
2018-07-28T12:41:05.089Z,37.04
2018-07-28T12:43:33.857Z,37.00
2018-07-28T12:46:04.077Z,35.64
2018-07-28T12:48:33.243Z,35.42
2018-07-28T12:51:02.033Z,34.59
2018-07-28T12:53:32.321Z,35.38
2018-07-28T12:56:01.194Z,33.40
2018-07-28T12:58:29.986Z,36.35
2018-07-28T13:00:58.932Z,36.84
2018-07-28T13:03:27.831Z,35.92
2018-07-28T13:05:56.843Z,34.98
2018-07-28T13:08:25.911Z,35.63
2018-07-28T13:10:54.755Z,35.79
2018-07-28T13:13:23.619Z,34.23
2018-07-28T13:15:52.508Z,34.26
2018-07-28T13:18:21.323Z,34.52
2018-07-28T13:20:50.177Z,34.28
2018-07-28T13:23:19.144Z,35.53
2018-07-28T13:25:48.016Z,37.28
2018-07-28T13:28:17.156Z,35.83
2018-07-28T13:30:46.068Z,33.19
2018-07-28T13:33:14.924Z,33.84
2018-07-28T13:35:43.850Z,34.70
2018-07-28T13:38:12.726Z,35.11
2018-07-28T13:40:41.587Z,34.88
2018-07-28T13:43:10.449Z,35.70
2018-07-28T13:45:39.324Z,35.67
2018-07-28T13:48:09.387Z,35.08
2018-07-28T13:50:38.281Z,33.63
2018-07-28T13:53:07.200Z,33.62
2018-07-28T13:55:36.017Z,34.00
2018-07-28T13:58:04.826Z,33.46
2018-07-28T14:00:33.719Z,34.18
2018-07-28T14:03:02.583Z,34.67
2018-07-28T14:05:31.482Z,34.70
2018-07-28T14:08:00.340Z,34.73
2018-07-28T14:10:29.198Z,33.48
2018-07-28T14:12:57.997Z,33.72
2018-07-28T14:15:26.854Z,32.58
2018-07-28T14:17:55.713Z,34.32
2018-07-28T14:20:24.524Z,32.41
2018-07-28T14:22:53.327Z,32.94
2018-07-28T14:25:22.140Z,34.60
2018-07-28T14:27:50.983Z,33.72
2018-07-28T14:30:19.845Z,34.27
2018-07-28T14:32:48.711Z,33.54
2018-07-28T14:35:17.490Z,32.50
2018-07-28T14:37:46.273Z,32.22
2018-07-28T14:40:16.396Z,32.74
2018-07-28T14:42:45.239Z,34.60
2018-07-28T14:45:14.060Z,36.12
2018-07-28T14:47:44.188Z,38.33
2018-07-28T14:50:12.996Z,41.12
2018-07-28T14:52:41.776Z,44.95
2018-07-28T14:55:10.670Z,47.83
2018-07-28T14:57:39.473Z,48.50
2018-07-28T15:00:08.496Z,50.77
2018-07-28T15:02:38.766Z,53.01
2018-07-28T15:05:07.681Z,55.53
2018-07-28T15:07:36.483Z,55.41
2018-07-28T15:10:05.424Z,57.07
2018-07-28T15:12:34.273Z,58.40
2018-07-28T15:15:03.091Z,57.93
2018-07-28T15:17:33.163Z,57.85
2018-07-28T15:20:01.949Z,58.92
2018-07-28T15:22:30.773Z,59.74
2018-07-28T15:25:00.992Z,60.18
2018-07-28T15:27:29.841Z,59.10
2018-07-28T15:29:58.616Z,59.36
2018-07-28T15:32:27.448Z,59.81
2018-07-28T15:34:56.238Z,61.13
2018-07-28T15:37:25.068Z,61.01
2018-07-28T15:39:55.405Z,60.43
2018-07-28T15:42:24.241Z,60.28
2018-07-28T15:44:53.054Z,60.36
2018-07-28T15:47:21.898Z,59.42
2018-07-28T15:49:50.703Z,59.47
2018-07-28T15:52:19.517Z,59.91
2018-07-28T15:54:48.376Z,60.66
2018-07-28T15:57:17.224Z,60.78
2018-07-28T15:59:46.080Z,60.65
2018-07-28T16:02:16.222Z,60.97
2018-07-28T16:04:45.010Z,61.13
2018-07-28T16:07:13.835Z,60.96
2018-07-28T16:09:44.124Z,60.77
2018-07-28T16:12:12.978Z,59.98
2018-07-28T16:14:41.867Z,60.98
2018-07-28T16:17:11.947Z,61.32
2018-07-28T16:19:40.866Z,61.12
2018-07-28T16:22:09.763Z,60.46
2018-07-28T16:24:38.656Z,60.55
2018-07-28T16:27:07.515Z,60.04
2018-07-28T16:29:36.463Z,60.74
2018-07-28T16:32:05.348Z,63.90
2018-07-28T16:34:34.230Z,65.27
2018-07-28T16:37:03.100Z,68.66
2018-07-28T16:39:33.286Z,66.87
2018-07-28T16:42:02.118Z,68.39
2018-07-28T16:44:30.918Z,68.30
2018-07-28T16:46:59.792Z,68.71
2018-07-28T16:49:28.615Z,68.70
2018-07-28T16:51:57.408Z,71.33
2018-07-28T16:54:27.484Z,75.95
2018-07-28T16:56:56.327Z,75.71
2018-07-28T16:59:25.221Z,76.81
2018-07-28T17:01:54.071Z,77.51
2018-07-28T17:04:22.924Z,77.13
2018-07-28T17:06:51.760Z,76.52
2018-07-28T17:09:20.579Z,76.21
2018-07-28T17:11:49.419Z,78.11
2018-07-28T17:14:18.291Z,80.85
2018-07-28T17:16:47.133Z,82.16
2018-07-28T17:19:15.973Z,80.69
2018-07-28T17:21:44.780Z,80.38
2018-07-28T17:24:13.699Z,81.15
2018-07-28T17:26:42.516Z,83.04
2018-07-28T17:29:11.334Z,84.26
2018-07-28T17:31:40.279Z,85.95
2018-07-28T17:34:11.987Z,86.07
2018-07-28T17:36:50.933Z,86.63
2018-07-28T17:39:34.158Z,85.65
2018-07-28T17:42:21.429Z,85.81
2018-07-28T17:45:01.993Z,86.16
2018-07-28T17:47:37.001Z,86.05
2018-07-28T17:50:18.294Z,85.85
2018-07-28T17:52:51.987Z,84.80
2018-07-28T17:55:32.625Z,85.43
2018-07-28T17:58:28.161Z,86.46
2018-07-28T18:01:12.926Z,86.19
2018-07-28T18:03:59.631Z,85.03
2018-07-28T18:06:42.451Z,84.95
2018-07-28T18:09:21.427Z,85.15
2018-07-28T18:12:01.585Z,84.21
2018-07-28T18:14:40.751Z,84.60
2018-07-28T18:17:12.556Z,84.84
2018-07-28T18:19:49.618Z,85.38
2018-07-28T18:22:33.488Z,83.13
2018-07-28T18:25:15.294Z,80.46
2018-07-28T18:27:52.089Z,81.82
2018-07-28T18:30:26.671Z,84.27
2018-07-28T18:33:02.081Z,82.66
2018-07-28T18:35:38.945Z,82.02
2018-07-28T18:38:19.487Z,81.88
2018-07-28T18:43:50.032Z,81.96
2018-07-28T18:46:33.511Z,82.83
2018-07-28T18:54:39.294Z,81.78
2018-07-28T18:57:22.034Z,83.87
2018-07-28T19:00:16.565Z,82.89
2018-07-28T19:02:54.245Z,82.29
2018-07-28T19:05:30.797Z,86.48
2018-07-28T19:08:19.363Z,87.75
2018-07-28T19:11:04.169Z,88.38
2018-07-28T19:16:34.648Z,87.79
2018-07-28T19:19:11.852Z,88.31
2018-07-28T19:21:51.202Z,88.25
2018-07-28T19:24:33.847Z,87.51
2018-07-28T19:29:49.517Z,85.70
2018-07-28T19:32:30.753Z,85.15
2018-07-28T19:35:19.903Z,86.11
2018-07-28T19:38:00.042Z,85.96
2018-07-28T19:41:00.030Z,85.66
2018-07-28T19:43:48.791Z,86.10
2018-07-28T19:46:47.878Z,85.92
2018-07-28T19:49:21.517Z,86.73
2018-07-28T19:52:13.930Z,85.96
2018-07-28T19:54:49.499Z,87.51
2018-07-28T19:57:29.444Z,87.59
2018-07-28T20:00:18.655Z,87.57
2018-07-28T20:03:00.584Z,87.00
2018-07-28T20:05:44.570Z,88.16
2018-07-28T20:08:22.730Z,87.16
2018-07-28T20:11:12.400Z,88.08
2018-07-28T20:13:57.776Z,88.74
2018-07-28T20:16:42.624Z,88.45
2018-07-28T20:19:22.477Z,88.25
2018-07-28T20:22:03.953Z,87.76
2018-07-28T20:24:39.054Z,88.38
2018-07-28T20:27:16.186Z,88.07
2018-07-28T20:29:59.187Z,88.45
2018-07-28T20:32:50.532Z,88.47
2018-07-28T20:35:29.398Z,88.57
2018-07-28T20:38:03.394Z,88.46
2018-07-28T20:43:27.733Z,88.98
2018-07-28T20:46:03.736Z,89.78
2018-07-28T20:48:43.372Z,89.03
2018-07-28T20:51:31.038Z,88.74
2018-07-28T20:54:22.358Z,89.44
2018-07-28T20:57:02.938Z,88.20
2018-07-28T20:59:43.504Z,88.04
2018-07-28T21:02:17.664Z,88.21
2018-07-28T21:05:03.714Z,87.94
2018-07-28T21:07:41.385Z,86.66
2018-07-28T21:10:22.360Z,87.72
2018-07-28T21:12:56.724Z,87.37
2018-07-28T21:15:30.337Z,87.87
2018-07-28T21:18:14.803Z,87.46
2018-07-28T21:20:55.366Z,86.84
2018-07-28T21:23:33.777Z,85.34
2018-07-28T21:26:15.188Z,85.28
2018-07-28T21:28:59.267Z,85.37
2018-07-28T21:31:48.791Z,84.73
2018-07-28T21:34:36.193Z,84.24
2018-07-28T21:37:18.426Z,84.80
2018-07-28T21:39:55.767Z,84.95
2018-07-28T21:42:29.889Z,84.48
2018-07-28T21:50:54.929Z,85.35
2018-07-28T21:53:26.692Z,85.41
2018-07-28T21:56:06.403Z,84.98
2018-07-28T21:58:46.457Z,85.49
2018-07-28T22:01:25.501Z,85.40
2018-07-28T22:04:02.201Z,85.00
2018-07-28T22:06:39.124Z,85.86
2018-07-28T22:09:33.632Z,86.15
2018-07-28T22:12:26.607Z,87.11
2018-07-28T22:15:12.338Z,87.86
2018-07-28T22:17:50.329Z,88.40
2018-07-28T22:20:26.222Z,88.12
2018-07-28T22:23:09.560Z,88.20
2018-07-28T22:25:54.755Z,88.46
2018-07-28T22:28:41.575Z,89.17
2018-07-28T22:34:02.733Z,89.94
2018-07-28T22:36:50.413Z,89.47
2018-07-28T22:39:21.154Z,89.01
2018-07-28T22:41:57.455Z,89.00
2018-07-28T22:44:29.548Z,88.62
2018-07-28T22:47:41.668Z,87.77
2018-07-28T22:50:19.021Z,87.39
2018-07-28T22:52:55.775Z,87.76
2018-07-28T22:55:28.697Z,87.61
2018-07-28T22:57:57.556Z,88.37
2018-07-28T23:00:26.455Z,87.59
2018-07-28T23:02:55.353Z,87.95
2018-07-28T23:05:24.265Z,88.52
2018-07-28T23:07:53.071Z,88.17
2018-07-28T23:10:21.930Z,88.28
2018-07-28T23:12:50.770Z,88.56
2018-07-28T23:15:19.588Z,88.48
2018-07-28T23:17:48.672Z,88.23
2018-07-28T23:20:17.483Z,88.20
2018-07-28T23:22:46.311Z,88.05
2018-07-28T23:25:15.157Z,87.97
2018-07-28T23:27:43.993Z,88.04
2018-07-28T23:30:12.855Z,87.89
2018-07-28T23:32:41.692Z,87.93
2018-07-28T23:35:10.624Z,87.73
2018-07-28T23:37:39.472Z,87.16
2018-07-28T23:40:08.648Z,87.69
2018-07-28T23:42:37.560Z,87.55
2018-07-28T23:45:06.689Z,87.31
2018-07-28T23:47:35.551Z,87.55
2018-07-28T23:50:04.772Z,88.03
2018-07-28T23:52:33.705Z,87.09
2018-07-28T23:55:02.551Z,87.37
2018-07-28T23:57:31.411Z,88.02
